Time;durP1;ratioP1;P1;durP2;ratioP2;P2;SDS_P1;SDS_P2;PMS_P1;PMS_P2;Temp;Humidity;BMP_temperature;BMP_pressure;BME280_temperature;BME280_humidity;BME280_pressure;Samples;Min_cycle;Max_cycle;Signal;HPM_P1;HPM_P2
2023/11/23 00:01:10;;;;;;;;;;;;;;;19.16;66.47;101667.97;7397389;19;1367;-43
2023/11/23 00:03:41;;;;;;;;;;;;;;;19.16;66.19;101665.31;7397613;19;1614;-43
2023/11/23 00:06:09;;;;;;;;;;;;;;;19.11;66.18;101659.44;7398658;19;1418;-43
2023/11/23 00:08:40;;;;;;;;;;;;;;;19.13;66.32;101652.16;7396836;19;1434;-43
2023/11/23 00:11:09;;;;;;;;;;;;;;;19.03;66.50;101650.13;7395167;19;1478;-43
2023/11/23 00:13:38;;;;;;;;;;;;;;;19.04;66.49;101659.06;7397075;19;1492;-43
2023/11/23 00:16:06;;;;;;;;;;;;;;;19.04;66.37;101661.75;7396938;19;1871;-43
2023/11/23 00:18:34;;;;;;;;;;;;;;;19.11;66.18;101670.16;7397771;19;1357;-42
2023/11/23 00:21:05;;;;;;;;;;;;;;;19.06;66.27;101660.66;7397189;19;1490;-43
2023/11/23 00:23:34;;;;;;;;;;;;;;;19.00;66.47;101669.16;7397250;19;1861;-43
2023/11/23 00:26:03;;;;;;;;;;;;;;;19.02;66.60;101667.19;7396058;19;1351;-42
2023/11/23 00:28:31;;;;;;;;;;;;;;;19.13;66.31;101668.22;7394688;19;1809;-43
2023/11/23 00:30:59;;;;;;;;;;;;;;;19.15;66.01;101671.66;7396978;19;1473;-43
2023/11/23 00:33:28;;;;;;;;;;;;;;;19.12;66.28;101671.88;7397009;19;1473;-43
2023/11/23 00:35:56;;;;;;;;;;;;;;;19.06;66.56;101678.56;7396757;19;1423;-43
2023/11/23 00:38:27;;;;;;;;;;;;;;;19.07;66.41;101670.38;7397176;19;1494;-42
2023/11/23 00:40:56;;;;;;;;;;;;;;;19.09;66.43;101667.59;7397048;19;1382;-42
2023/11/23 00:43:24;;;;;;;;;;;;;;;19.07;66.32;101667.69;7397424;19;1509;-42
2023/11/23 00:45:52;;;;;;;;;;;;;;;19.01;66.48;101654.75;7396835;19;1370;-43
2023/11/23 00:48:21;;;;;;;;;;;;;;;19.02;66.37;101651.13;7395626;19;1291;-42
2023/11/23 00:50:49;;;;;;;;;;;;;;;18.98;66.42;101644.28;7394963;19;1854;-43
2023/11/23 00:53:17;;;;;;;;;;;;;;;18.98;66.42;101660.38;7381558;19;1572;-42
2023/11/23 00:55:48;;;;;;;;;;;;;;;18.99;66.32;101655.84;7396323;19;1541;-43
2023/11/23 00:58:17;;;;;;;;;;;;;;;18.52;66.36;101588.66;7394033;19;1866;-43
2023/11/23 01:00:45;;;;;;;;;;;;;;;19.02;66.19;101683.28;7396300;19;1460;-48
2023/11/23 01:03:13;;;;;;;;;;;;;;;19.00;66.18;101679.88;7396562;19;1511;-42
2023/11/23 01:05:42;;;;;;;;;;;;;;;19.01;66.14;101681.56;7395680;19;1145;-42
2023/11/23 01:08:10;;;;;;;;;;;;;;;19.03;66.21;101687.66;7396378;19;1583;-42
2023/11/23 01:10:39;;;;;;;;;;;;;;;18.99;66.26;101691.53;7395176;19;1529;-43
2023/11/23 01:13:09;;;;;;;;;;;;;;;18.95;66.43;101687.38;7396314;19;1480;-42
2023/11/23 01:15:38;;;;;;;;;;;;;;;18.94;66.59;101707.13;7395451;19;1600;-42
2023/11/23 01:18:06;;;;;;;;;;;;;;;18.90;66.48;101691.34;7392593;19;1862;-42
2023/11/23 01:20:34;;;;;;;;;;;;;;;18.90;66.35;101669.91;7395739;19;1402;-43
2023/11/23 01:23:03;;;;;;;;;;;;;;;18.92;66.17;101668.84;7394340;19;2790;-42
2023/11/23 01:25:31;;;;;;;;;;;;;;;18.88;66.33;101691.50;7395310;19;1553;-43
2023/11/23 01:27:59;;;;;;;;;;;;;;;18.94;66.24;101695.53;7394919;19;1568;-43
2023/11/23 01:30:30;;;;;;;;;;;;;;;18.94;66.17;101703.56;7395681;19;1534;-43
2023/11/23 01:32:59;;;;;;;;;;;;;;;18.95;65.97;101684.69;7394948;19;1473;-42
2023/11/23 01:35:27;;;;;;;;;;;;;;;19.10;65.72;101676.47;7394748;19;1336;-42
2023/11/23 01:37:55;;;;;;;;;;;;;;;19.00;65.82;101679.88;7393578;19;1853;-43
2023/11/23 01:40:24;;;;;;;;;;;;;;;19.02;65.95;101688.66;7395565;19;1429;-43
2023/11/23 01:42:52;;;;;;;;;;;;;;;18.94;66.16;101691.03;7394294;19;1842;-43
2023/11/23 01:45:22;;;;;;;;;;;;;;;18.94;66.05;101693.72;7394356;19;1552;-43
2023/11/23 01:47:53;;;;;;;;;;;;;;;18.95;65.95;101703.47;7394949;19;1541;-43
2023/11/23 01:50:22;;;;;;;;;;;;;;;18.90;66.37;101713.69;7395134;19;1513;-43
2023/11/23 01:52:50;;;;;;;;;;;;;;;18.92;66.06;101713.53;7394434;19;1514;-43
2023/11/23 01:55:19;;;;;;;;;;;;;;;18.95;66.04;101705.28;7379442;19;1510;-43
2023/11/23 01:57:49;;;;;;;;;;;;;;;18.92;66.25;101719.78;7393735;19;1860;-42
2023/11/23 02:00:18;;;;;;;;;;;;;;;18.85;66.45;101718.50;7395193;19;1537;-42
2023/11/23 02:02:46;;;;;;;;;;;;;;;18.84;66.44;101733.75;7393142;19;1941;-43
2023/11/23 02:05:17;;;;;;;;;;;;;;;18.88;66.26;101734.38;7393790;19;1535;-43
2023/11/23 02:07:45;;;;;;;;;;;;;;;18.92;65.89;101741.22;7393833;19;1556;-43
2023/11/23 02:10:14;;;;;;;;;;;;;;;18.90;66.05;101729.75;7393765;19;1456;-42
2023/11/23 02:12:42;;;;;;;;;;;;;;;18.90;66.06;101727.09;7394578;19;1447;-42
2023/11/23 02:15:12;;;;;;;;;;;;;;;18.84;66.04;101739.09;7395735;19;1085;-43
2023/11/23 02:17:40;;;;;;;;;;;;;;;18.93;65.93;101731.34;7392848;19;1911;-43
2023/11/23 02:20:10;;;;;;;;;;;;;;;18.92;65.99;101743.91;7393242;19;1449;-42
2023/11/23 02:22:41;;;;;;;;;;;;;;;18.91;65.92;101734.13;7393793;19;1485;-43
2023/11/23 02:25:12;;;;;;;;;;;;;;;19.25;65.25;101743.25;7393716;19;1457;-43
2023/11/23 02:27:41;;;;;;;;;;;;;;;19.89;63.29;101736.72;7393747;19;1443;-42
2023/11/23 02:30:11;;;;;;;;;;;;;;;20.76;61.17;101742.44;7393654;19;1524;-42
2023/11/23 02:32:39;;;;;;;;;;;;;;;21.19;59.86;101743.50;7391648;19;1934;-42
2023/11/23 02:35:08;;;;;;;;;;;;;;;21.34;59.45;101736.81;7394725;19;1313;-43
2023/11/23 02:37:36;;;;;;;;;;;;;;;21.65;58.62;101723.53;7392490;19;1863;-43
2023/11/23 02:40:06;;;;;;;;;;;;;;;21.77;58.42;101735.97;7393055;19;1488;-42
2023/11/23 02:42:38;;;;;;;;;;;;;;;21.71;58.32;101723.03;7392854;19;1478;-42
2023/11/23 02:45:07;;;;;;;;;;;;;;;21.66;58.62;101703.69;7392676;19;1548;-43
2023/11/23 02:47:36;;;;;;;;;;;;;;;21.59;58.67;101710.59;7391764;19;1549;-42
2023/11/23 02:50:04;;;;;;;;;;;;;;;21.66;58.64;101722.53;7392265;19;1409;-42
2023/11/23 02:52:33;;;;;;;;;;;;;;;21.72;58.51;101718.47;7392214;19;1423;-42
2023/11/23 02:55:01;;;;;;;;;;;;;;;21.77;58.43;101719.81;7377951;19;1417;-42
2023/11/23 02:57:29;;;;;;;;;;;;;;;21.80;58.21;101716.84;7392892;19;1857;-42
2023/11/23 03:00:00;;;;;;;;;;;;;;;21.74;58.22;101714.66;7392623;19;1584;-42
2023/11/23 03:02:28;;;;;;;;;;;;;;;21.75;58.52;101720.94;7393234;19;1506;-42
2023/11/23 03:04:57;;;;;;;;;;;;;;;21.81;58.09;101712.31;7392502;19;1880;-43
2023/11/23 03:07:25;;;;;;;;;;;;;;;21.83;58.20;101716.59;7391902;19;1612;-43
2023/11/23 03:09:53;;;;;;;;;;;;;;;21.84;58.42;101726.38;7391663;19;1539;-42
2023/11/23 03:12:21;;;;;;;;;;;;;;;21.72;58.72;101734.63;7392743;19;1583;-43
2023/11/23 03:14:50;;;;;;;;;;;;;;;21.76;58.44;101710.00;7392953;19;1073;-42
2023/11/23 03:17:21;;;;;;;;;;;;;;;21.87;58.06;101705.56;7391534;19;1839;-42
2023/11/23 03:19:50;;;;;;;;;;;;;;;22.02;57.82;101706.91;7391718;19;1508;-42
2023/11/23 03:22:18;;;;;;;;;;;;;;;22.05;57.78;101709.34;7391919;19;1486;-43
2023/11/23 03:24:49;;;;;;;;;;;;;;;22.01;57.84;101697.16;7391550;19;1400;-42
2023/11/23 03:27:17;;;;;;;;;;;;;;;22.05;57.74;101712.06;7390726;19;1446;-42
2023/11/23 03:29:45;;;;;;;;;;;;;;;21.99;57.94;101697.28;7391892;19;1480;-43
2023/11/23 03:32:14;;;;;;;;;;;;;;;22.12;57.60;101709.66;7392978;19;1189;-43
2023/11/23 03:34:45;;;;;;;;;;;;;;;22.01;57.95;101710.63;7391633;19;1541;-43
2023/11/23 03:37:15;;;;;;;;;;;;;;;22.11;57.76;101708.81;7391349;19;1838;-43
2023/11/23 03:39:44;;;;;;;;;;;;;;;22.07;57.53;101709.22;7390621;19;1871;-43
2023/11/23 03:42:12;;;;;;;;;;;;;;;21.55;57.97;101639.19;7391810;19;1597;-52
2023/11/23 03:44:40;;;;;;;;;;;;;;;22.15;57.38;101702.19;7391515;19;1485;-49
2023/11/23 03:47:09;;;;;;;;;;;;;;;22.23;57.17;101707.75;7391356;19;1477;-52
2023/11/23 03:49:37;;;;;;;;;;;;;;;22.16;57.38;101697.63;7392191;19;1536;-52
2023/11/23 03:52:08;;;;;;;;;;;;;;;22.14;57.54;101703.16;7391641;19;1529;-57
2023/11/23 03:54:36;;;;;;;;;;;;;;;22.07;57.65;101703.84;7377413;19;1722;-53
2023/11/23 03:57:05;;;;;;;;;;;;;;;21.43;59.03;101722.66;7389236;19;1489;-53
2023/11/23 03:59:33;;;;;;;;;;;;;;;20.96;60.04;101735.47;7388638;19;1836;-54
2023/11/23 04:02:01;;;;;;;;;;;;;;;20.73;60.92;101748.09;7390233;19;1528;-53
2023/11/23 04:04:31;;;;;;;;;;;;;;;20.49;61.43;101750.84;7390814;19;1644;-53
2023/11/23 04:06:59;;;;;;;;;;;;;;;20.36;61.78;101755.50;7389485;19;1152;-53
2023/11/23 04:09:30;;;;;;;;;;;;;;;20.29;61.92;101757.78;7390885;19;1886;-53
2023/11/23 04:11:58;;;;;;;;;;;;;;;20.23;61.95;101740.34;7388896;19;1418;-52
2023/11/23 04:14:30;;;;;;;;;;;;;;;20.18;62.20;101745.22;7390046;19;1541;-52
2023/11/23 04:16:59;;;;;;;;;;;;;;;20.16;62.09;101751.69;7391710;19;1568;-53
2023/11/23 04:19:27;;;;;;;;;;;;;;;20.14;62.18;101757.16;7388734;19;1841;-53
2023/11/23 04:21:55;;;;;;;;;;;;;;;20.07;62.16;101747.84;7390541;19;1543;-52
2023/11/23 04:24:24;;;;;;;;;;;;;;;20.06;62.16;101755.06;7393300;19;1494;-52
2023/11/23 04:26:55;;;;;;;;;;;;;;;19.94;62.38;101745.28;7397757;19;1600;-53
2023/11/23 04:29:23;;;;;;;;;;;;;;;19.96;62.55;101755.91;7398562;19;1560;-52
2023/11/23 04:31:52;;;;;;;;;;;;;;;19.98;62.31;101751.28;7399065;19;1185;-52
2023/11/23 04:34:21;;;;;;;;;;;;;;;19.94;62.42;101763.22;7397205;19;1393;-52
2023/11/23 04:36:49;;;;;;;;;;;;;;;19.94;62.23;101782.00;7396234;19;1553;-53
2023/11/23 04:39:19;;;;;;;;;;;;;;;19.90;62.36;101777.84;7393135;19;1856;-53
2023/11/23 04:41:47;;;;;;;;;;;;;;;19.80;62.48;101770.50;7398182;19;1490;-52
2023/11/23 04:44:18;;;;;;;;;;;;;;;19.76;62.62;101769.00;7396209;19;1771;-52
2023/11/23 04:46:46;;;;;;;;;;;;;;;19.70;62.78;101773.97;7395725;19;1853;-53
2023/11/23 04:49:16;;;;;;;;;;;;;;;19.74;62.81;101776.31;7391678;19;1284;-53
2023/11/23 04:51:44;;;;;;;;;;;;;;;19.73;62.76;101782.66;7392695;19;1406;-52
2023/11/23 04:54:15;;;;;;;;;;;;;;;19.74;62.78;101779.00;7393573;19;1544;-53
2023/11/23 04:56:43;;;;;;;;;;;;;;;19.79;62.67;101794.75;7386966;19;1442;-53
2023/11/23 04:59:11;;;;;;;;;;;;;;;19.75;62.59;101774.50;7394737;19;1841;-53
2023/11/23 05:01:42;;;;;;;;;;;;;;;19.75;62.74;101783.38;7396354;19;1791;-52
2023/11/23 05:04:11;;;;;;;;;;;;;;;19.65;62.89;101776.97;7390881;19;2202;-53
2023/11/23 05:06:39;;;;;;;;;;;;;;;19.60;63.04;101795.25;7394696;19;1567;-53
2023/11/23 05:09:08;;;;;;;;;;;;;;;19.56;63.12;101791.09;7395905;19;1472;-52
2023/11/23 05:11:36;;;;;;;;;;;;;;;19.52;63.25;101794.94;7395693;19;1540;-53
2023/11/23 05:14:08;;;;;;;;;;;;;;;19.59;63.20;101815.00;7394871;19;1560;-53
2023/11/23 05:16:37;;;;;;;;;;;;;;;19.57;63.23;101799.00;7396424;19;1562;-52
2023/11/23 05:19:08;;;;;;;;;;;;;;;19.64;63.29;101802.09;7393566;19;1861;-53
2023/11/23 05:21:36;;;;;;;;;;;;;;;19.62;63.06;101825.53;7392567;19;1436;-52
2023/11/23 05:24:05;;;;;;;;;;;;;;;19.59;63.13;101817.69;7395764;19;1452;-52
2023/11/23 05:26:33;;;;;;;;;;;;;;;19.39;63.83;101814.63;7394468;19;1444;-53
2023/11/23 05:29:01;;;;;;;;;;;;;;;19.31;64.25;101819.72;7395013;19;1366;-53
2023/11/23 05:31:30;;;;;;;;;;;;;;;19.21;64.10;101816.84;7397088;19;1206;-53
2023/11/23 05:33:58;;;;;;;;;;;;;;;19.17;64.59;101814.50;7394713;19;1535;-52
2023/11/23 05:36:29;;;;;;;;;;;;;;;19.21;64.36;101810.63;7394723;19;1489;-53
2023/11/23 05:38:57;;;;;;;;;;;;;;;19.20;64.47;101819.63;7393574;19;1859;-53
2023/11/23 05:41:25;;;;;;;;;;;;;;;19.16;64.39;101818.13;7395859;19;1437;-52
2023/11/23 05:43:54;;;;;;;;;;;;;;;19.15;64.31;101819.97;7396446;19;1461;-53
2023/11/23 05:46:22;;;;;;;;;;;;;;;19.16;64.52;101800.25;7393690;19;1572;-53
2023/11/23 05:48:50;;;;;;;;;;;;;;;19.18;64.31;101805.47;7394871;19;1369;-53
2023/11/23 05:51:19;;;;;;;;;;;;;;;19.20;64.32;101819.63;7395030;19;1395;-53
2023/11/23 05:53:49;;;;;;;;;;;;;;;19.18;64.25;101826.91;7395513;19;1393;-53
2023/11/23 05:56:19;;;;;;;;;;;;;;;19.12;64.36;101830.03;7379681;19;1842;-53
2023/11/23 05:58:47;;;;;;;;;;;;;;;19.22;64.17;101847.22;7393196;19;1850;-53
2023/11/23 06:01:15;;;;;;;;;;;;;;;19.27;63.84;101815.53;7394114;19;1477;-53
2023/11/23 06:03:43;;;;;;;;;;;;;;;19.92;62.40;101814.34;7393673;19;1464;-53
2023/11/23 06:06:20;;;;;;;;;;;;;;;20.16;61.57;101813.44;7393565;19;2185;-52
2023/11/23 06:08:51;;;;;;;;;;;;;;;20.34;61.22;101822.75;7391514;19;1437;-53
2023/11/23 06:11:20;;;;;;;;;;;;;;;19.95;62.04;101823.97;7393627;19;1584;-52
2023/11/23 06:13:48;;;;;;;;;;;;;;;19.77;62.47;101808.28;7395013;19;1426;-52
2023/11/23 06:16:17;;;;;;;;;;;;;;;20.27;61.23;101794.66;7393548;19;1431;-52
2023/11/23 06:18:45;;;;;;;;;;;;;;;20.58;60.51;101803.88;7378216;19;1872;-52
2023/11/23 06:21:14;;;;;;;;;;;;;;;21.06;59.30;101797.41;7390545;19;1453;-52
2023/11/23 06:23:42;;;;;;;;;;;;;;;21.17;59.03;101815.38;7386771;19;1437;-53
2023/11/23 06:26:13;;;;;;;;;;;;;;;20.97;59.50;101814.28;7390132;19;1406;-52
2023/11/23 06:28:42;;;;;;;;;;;;;;;20.44;60.57;101801.41;7391409;19;1338;-52
2023/11/23 06:31:10;;;;;;;;;;;;;;;20.09;61.78;101813.03;7392914;19;1830;-52
2023/11/23 06:33:39;;;;;;;;;;;;;;;20.14;61.62;101828.81;7387809;19;1953;-52
2023/11/23 06:36:07;;;;;;;;;;;;;;;20.60;60.50;101831.50;7390791;19;1453;-52
2023/11/23 06:38:36;;;;;;;;;;;;;;;20.78;60.12;101805.00;7389298;19;1877;-52
2023/11/23 06:41:05;;;;;;;;;;;;;;;21.11;59.17;101807.78;7392125;19;1481;-55
2023/11/23 06:43:36;;;;;;;;;;;;;;;20.64;61.01;101810.63;7392389;19;1508;-52
2023/11/23 06:46:04;;;;;;;;;;;;;;;20.22;62.66;101800.38;7387775;19;1466;-52
2023/11/23 06:48:30;;;;;;;;;;;;;;;19.96;63.05;101797.03;7392445;19;1369;-53
2023/11/23 06:50:58;;;;;;;;;;;;;;;20.34;62.35;101797.75;7391722;19;1826;-52
2023/11/23 06:53:26;;;;;;;;;;;;;;;20.79;60.97;101813.91;7391362;19;1647;-54
2023/11/23 06:55:57;;;;;;;;;;;;;;;21.00;60.14;101803.28;7372764;19;2347;-52
2023/11/23 06:58:25;;;;;;;;;;;;;;;20.55;61.47;101820.25;7389550;19;1840;-53
2023/11/23 07:00:56;;;;;;;;;;;;;;;20.19;62.61;101819.44;7391433;19;1556;-52
2023/11/23 07:03:24;;;;;;;;;;;;;;;20.01;63.12;101826.19;7391406;19;1532;-52
2023/11/23 07:05:52;;;;;;;;;;;;;;;20.43;61.66;101807.75;7390892;19;1390;-52
2023/11/23 07:08:21;;;;;;;;;;;;;;;20.77;60.73;101792.56;7391867;19;1462;-52
2023/11/23 07:10:49;;;;;;;;;;;;;;;20.97;60.03;101792.78;7389084;19;1515;-52
2023/11/23 07:13:17;;;;;;;;;;;;;;;20.50;61.59;101794.72;7390596;19;1501;-53
2023/11/23 07:15:46;;;;;;;;;;;;;;;20.10;62.44;101804.03;7386557;19;1434;-52
2023/11/23 07:18:20;;;;;;;;;;;;;;;19.91;63.16;101798.34;7388682;19;1867;-52
2023/11/23 07:20:50;;;;;;;;;;;;;;;20.53;61.41;101789.97;7391046;19;1862;-52
2023/11/23 07:23:18;;;;;;;;;;;;;;;20.68;60.96;101787.06;7388976;19;1783;-51
2023/11/23 07:25:47;;;;;;;;;;;;;;;21.01;59.98;101778.13;7389491;19;1556;-51
2023/11/23 07:28:16;;;;;;;;;;;;;;;20.49;61.16;101766.13;7390221;19;1541;-52
2023/11/23 07:30:45;;;;;;;;;;;;;;;20.15;62.49;101766.91;7389277;19;1412;-52
2023/11/23 07:33:13;;;;;;;;;;;;;;;19.95;63.10;101783.72;7390773;19;1553;-52
2023/11/23 07:35:46;;;;;;;;;;;;;;;20.40;62.03;101773.09;7392254;19;1578;-53
2023/11/23 07:38:15;;;;;;;;;;;;;;;21.00;60.82;101779.94;7391446;19;1023;-53
2023/11/23 07:40:43;;;;;;;;;;;;;;;21.02;60.64;101767.22;7386732;19;1857;-48
2023/11/23 07:43:12;;;;;;;;;;;;;;;20.53;61.91;101760.41;7387701;19;1553;-48
2023/11/23 07:45:40;;;;;;;;;;;;;;;20.18;62.63;101764.00;7386067;19;1402;-49
2023/11/23 07:48:13;;;;;;;;;;;;;;;20.03;62.89;101776.81;7387893;19;1464;-48
2023/11/23 07:50:45;;;;;;;;;;;;;;;20.46;61.74;101777.97;7388466;19;1414;-48
2023/11/23 07:53:13;;;;;;;;;;;;;;;20.82;60.40;101763.47;7388505;19;1806;-51
2023/11/23 07:55:43;;;;;;;;;;;;;;;20.51;60.26;101770.38;7374568;19;1470;-50
2023/11/23 07:58:11;;;;;;;;;;;;;;;20.19;61.40;101775.59;7392302;19;1509;-50
2023/11/23 08:00:40;;;;;;;;;;;;;;;19.99;61.52;101790.56;7395058;19;1861;-51
2023/11/23 08:03:09;;;;;;;;;;;;;;;20.33;60.75;101770.00;7394775;19;1525;-51
2023/11/23 08:05:38;;;;;;;;;;;;;;;20.66;59.92;101761.16;7396700;19;1070;-50
2023/11/23 08:08:10;;;;;;;;;;;;;;;20.84;59.30;101774.94;7395367;19;1925;-50
2023/11/23 08:10:39;;;;;;;;;;;;;;;20.47;60.51;101771.59;7392584;19;1458;-50
2023/11/23 08:13:07;;;;;;;;;;;;;;;20.13;61.31;101770.69;7393090;19;1481;-50
2023/11/23 08:15:36;;;;;;;;;;;;;;;19.94;61.66;101760.53;7394552;19;1521;-50
2023/11/23 08:18:04;;;;;;;;;;;;;;;20.27;60.94;101757.94;7394181;19;1524;-50
2023/11/23 08:20:33;;;;;;;;;;;;;;;20.68;60.48;101760.19;7392058;19;1872;-50
2023/11/23 08:23:02;;;;;;;;;;;;;;;20.94;60.30;101756.25;7396245;19;1508;-50
2023/11/23 08:25:33;;;;;;;;;;;;;;;20.54;60.63;101759.41;7398946;19;1851;-50
2023/11/23 08:28:02;;;;;;;;;;;;;;;20.30;61.94;101764.88;7396742;19;1473;-50
2023/11/23 08:30:30;;;;;;;;;;;;;;;20.07;62.70;101766.66;7397883;19;1531;-50
2023/11/23 08:32:59;;;;;;;;;;;;;;;20.22;62.19;101765.47;7396104;19;1489;-50
2023/11/23 08:35:27;;;;;;;;;;;;;;;20.51;61.87;101781.13;7396480;19;1520;-50
2023/11/23 08:37:56;;;;;;;;;;;;;;;20.83;61.02;101778.63;7396675;19;1592;-52
2023/11/23 08:40:24;;;;;;;;;;;;;;;20.75;61.12;101774.81;7393032;19;1852;-50
2023/11/23 08:42:55;;;;;;;;;;;;;;;20.37;61.92;101765.25;7395876;19;1549;-51
2023/11/23 08:45:24;;;;;;;;;;;;;;;20.19;64.71;101752.31;7395547;19;1602;-50
2023/11/23 08:47:52;;;;;;;;;;;;;;;20.18;64.83;101747.03;7395389;19;1628;-49
2023/11/23 08:50:21;;;;;;;;;;;;;;;20.53;63.73;101741.59;7395900;19;1385;-50
2023/11/23 08:52:50;;;;;;;;;;;;;;;20.83;63.35;101742.81;7396767;19;1940;-50
2023/11/23 08:55:18;;;;;;;;;;;;;;;20.79;64.96;101744.03;7397081;19;1924;-49
2023/11/23 08:57:50;;;;;;;;;;;;;;;20.34;64.64;101742.19;7381231;19;1486;-50
2023/11/23 09:00:23;;;;;;;;;;;;;;;20.13;64.52;101766.19;7391944;19;1846;-51
2023/11/23 09:02:54;;;;;;;;;;;;;;;20.26;63.97;101734.72;7396419;19;1813;-50
2023/11/23 09:05:22;;;;;;;;;;;;;;;20.73;63.15;101744.53;7396505;19;1541;-48
2023/11/23 09:07:51;;;;;;;;;;;;;;;20.88;62.79;101735.22;7394101;19;1449;-47
2023/11/23 09:10:23;;;;;;;;;;;;;;;20.44;63.60;101721.66;7391319;19;1394;-47
2023/11/23 09:12:51;;;;;;;;;;;;;;;20.13;63.17;101717.84;7395794;19;1445;-47
2023/11/23 09:15:22;;;;;;;;;;;;;;;19.99;64.66;101712.69;7395111;19;1367;-47
2023/11/23 09:17:51;;;;;;;;;;;;;;;19.94;64.55;101717.59;7395684;19;1587;-47
2023/11/23 09:20:19;;;;;;;;;;;;;;;19.83;64.36;101700.44;7395707;19;1843;-47
2023/11/23 09:22:48;;;;;;;;;;;;;;;20.26;62.97;101696.25;7396458;19;1438;-48
2023/11/23 09:25:16;;;;;;;;;;;;;;;20.52;62.69;101694.19;7396327;19;1592;-47
2023/11/23 09:27:45;;;;;;;;;;;;;;;20.93;61.86;101698.09;7396164;19;1428;-48
2023/11/23 09:30:15;;;;;;;;;;;;;;;20.58;63.64;101685.63;7396812;19;1498;-47
2023/11/23 09:32:46;;;;;;;;;;;;;;;20.20;63.99;101684.16;7393596;19;1820;-47
2023/11/23 09:35:14;;;;;;;;;;;;;;;20.02;64.11;101693.69;7396413;19;1216;-48
2023/11/23 09:37:43;;;;;;;;;;;;;;;20.22;63.29;101689.44;7396430;19;1551;-48
2023/11/23 09:40:18;;;;;;;;;;;;;;;20.41;62.57;101670.88;7394550;19;1843;-47
2023/11/23 09:42:49;;;;;;;;;;;;;;;20.74;61.86;101673.69;7395754;19;1511;-47
2023/11/23 09:45:19;;;;;;;;;;;;;;;20.88;61.50;101648.34;7395431;19;1542;-47
2023/11/23 09:47:51;;;;;;;;;;;;;;;20.39;63.16;101654.03;7394519;19;1658;-47
2023/11/23 09:50:20;;;;;;;;;;;;;;;20.19;63.62;101658.31;7394472;19;1497;-47
2023/11/23 09:52:49;;;;;;;;;;;;;;;19.95;63.80;101644.09;7395152;19;1489;-47
2023/11/23 09:55:18;;;;;;;;;;;;;;;20.25;62.78;101627.41;7394639;19;1628;-48
2023/11/23 09:57:48;;;;;;;;;;;;;;;20.52;62.39;101637.75;7392932;19;1445;-47
2023/11/23 10:00:18;;;;;;;;;;;;;;;20.73;61.37;101612.81;7392895;19;1853;-47
2023/11/23 10:02:49;;;;;;;;;;;;;;;20.32;62.87;101607.13;7394156;19;1738;-47
2023/11/23 10:05:20;;;;;;;;;;;;;;;20.02;63.40;101605.06;7395629;19;1501;-47
2023/11/23 10:07:49;;;;;;;;;;;;;;;19.88;63.19;101587.38;7390701;19;1622;-47
2023/11/23 10:10:18;;;;;;;;;;;;;;;20.33;62.24;101578.44;7394105;19;1485;-47
2023/11/23 10:12:47;;;;;;;;;;;;;;;20.71;61.39;101578.03;7395121;19;1539;-47
2023/11/23 10:15:16;;;;;;;;;;;;;;;20.96;60.48;101560.69;7394542;19;1370;-47
2023/11/23 10:17:44;;;;;;;;;;;;;;;21.01;60.19;101558.47;7395054;19;1183;-47
2023/11/23 10:20:14;;;;;;;;;;;;;;;20.66;61.11;101551.50;7393996;19;1885;-47
2023/11/23 10:22:47;;;;;;;;;;;;;;;20.25;62.10;101538.75;7392561;19;1427;-47
2023/11/23 10:25:25;;;;;;;;;;;;;;;20.03;62.41;101559.31;7392204;19;1472;-47
2023/11/23 10:27:54;;;;;;;;;;;;;;;20.20;61.99;101568.69;7393505;19;1446;-47
2023/11/23 10:30:22;;;;;;;;;;;;;;;20.42;61.38;101566.94;7394223;19;1482;-47
2023/11/23 10:32:53;;;;;;;;;;;;;;;20.88;60.22;101541.66;7394474;19;1509;-47
2023/11/23 10:35:22;;;;;;;;;;;;;;;20.57;61.00;101557.63;7394520;19;1517;-47
2023/11/23 10:37:55;;;;;;;;;;;;;;;20.12;62.12;101565.78;7392661;19;1454;-47
2023/11/23 10:40:24;;;;;;;;;;;;;;;19.96;62.38;101566.16;7392797;19;1867;-48
2023/11/23 10:42:53;;;;;;;;;;;;;;;20.10;61.86;101554.28;7392933;19;1767;-47
2023/11/23 10:45:22;;;;;;;;;;;;;;;20.46;61.27;101546.91;7393662;19;1599;-48
2023/11/23 10:47:51;;;;;;;;;;;;;;;20.88;60.10;101532.75;7394628;19;1372;-48
2023/11/23 10:50:20;;;;;;;;;;;;;;;20.37;61.30;101553.91;7394268;19;1554;-47
2023/11/23 10:52:48;;;;;;;;;;;;;;;20.02;62.05;101544.16;7395272;19;1615;-47
2023/11/23 10:55:19;;;;;;;;;;;;;;;19.85;63.20;101558.09;7392975;19;1414;-46
2023/11/23 10:57:51;;;;;;;;;;;;;;;20.50;62.40;101532.25;7391744;19;1370;-49
2023/11/23 11:00:24;;;;;;;;;;;;;;;20.65;60.55;101520.25;7393024;19;1860;-46
2023/11/23 11:02:54;;;;;;;;;;;;;;;20.32;61.29;101528.38;7393386;19;1408;-46
2023/11/23 11:05:22;;;;;;;;;;;;;;;20.12;61.64;101527.34;7391939;19;1500;-46
2023/11/23 11:07:55;;;;;;;;;;;;;;;19.96;62.45;101527.72;7393570;19;1474;-46
2023/11/23 11:10:27;;;;;;;;;;;;;;;20.13;62.20;101524.50;7391163;19;1442;-45
2023/11/23 11:13:05;;;;;;;;;;;;;;;20.48;61.45;101522.59;7392501;19;1477;-45
2023/11/23 11:15:33;;;;;;;;;;;;;;;20.33;61.61;101509.44;7391776;19;1393;-47
2023/11/23 11:18:06;;;;;;;;;;;;;;;20.10;62.15;101518.53;7393343;19;1462;-46
2023/11/23 11:20:36;;;;;;;;;;;;;;;19.93;62.72;101514.53;7391150;19;1874;-47
2023/11/23 11:23:05;;;;;;;;;;;;;;;20.48;61.38;101498.44;7388660;19;2533;-47
2023/11/23 11:25:45;;;;;;;;;;;;;;;20.79;60.39;101491.34;7393014;19;1492;-46
2023/11/23 11:28:15;;;;;;;;;;;;;;;20.44;61.22;101504.03;7393111;19;1544;-46
2023/11/23 11:30:46;;;;;;;;;;;;;;;20.07;62.36;101508.88;7390600;19;1576;-46
2023/11/23 11:33:17;;;;;;;;;;;;;;;19.91;62.63;101513.78;7394817;19;1524;-46
2023/11/23 11:35:46;;;;;;;;;;;;;;;20.38;61.28;101495.66;7400663;19;1541;-46
2023/11/23 11:38:15;;;;;;;;;;;;;;;20.62;60.08;101490.94;7401080;19;1056;-47
2023/11/23 11:40:50;;;;;;;;;;;;;;;20.52;60.07;101473.00;7398410;19;1860;-46
2023/11/23 11:43:19;;;;;;;;;;;;;;;20.21;60.60;101476.41;7378698;19;1472;-51
2023/11/23 11:45:48;;;;;;;;;;;;;;;19.98;62.40;101467.53;7396213;19;1582;-51
2023/11/23 11:48:16;;;;;;;;;;;;;;;20.06;61.42;101475.81;7394318;19;1954;-51
2023/11/23 11:50:45;;;;;;;;;;;;;;;20.41;60.87;101477.44;7398099;19;1623;-49
2023/11/23 11:53:13;;;;;;;;;;;;;;;20.58;60.77;101489.47;7398415;19;1502;-48
2023/11/23 11:55:45;;;;;;;;;;;;;;;20.22;61.53;101464.69;7396243;19;1422;-49
2023/11/23 11:58:16;;;;;;;;;;;;;;;20.06;62.31;101462.41;7396745;19;1376;-49
2023/11/23 12:00:45;;;;;;;;;;;;;;;20.08;62.23;101473.03;7395367;19;1852;-49
2023/11/23 12:03:14;;;;;;;;;;;;;;;20.43;61.46;101450.44;7396315;19;1638;-49
2023/11/23 12:05:40;;;;;;;;;;;;;;;20.62;61.21;101439.88;7399955;19;1056;-49
2023/11/23 12:08:08;;;;;;;;;;;;;;;20.33;62.79;101425.31;7398978;19;1715;-48
2023/11/23 12:10:40;;;;;;;;;;;;;;;20.12;63.35;101442.25;7394529;19;1430;-49
2023/11/23 12:13:14;;;;;;;;;;;;;;;19.91;63.86;101426.06;7397546;19;1432;-49
2023/11/23 12:15:45;;;;;;;;;;;;;;;20.59;62.27;101453.59;7395074;19;2755;-49
2023/11/23 12:18:14;;;;;;;;;;;;;;;20.74;61.72;101416.50;7398748;19;1540;-49
2023/11/23 12:20:43;;;;;;;;;;;;;;;20.36;62.83;101412.50;7397994;19;1845;-49
2023/11/23 12:23:11;;;;;;;;;;;;;;;20.16;63.56;101427.59;7398600;19;1904;-52
2023/11/23 12:25:40;;;;;;;;;;;;;;;20.01;64.18;101407.38;7390344;19;1193;-49
2023/11/23 12:28:12;;;;;;;;;;;;;;;20.51;62.92;101410.34;7394166;19;1923;-49
2023/11/23 12:30:40;;;;;;;;;;;;;;;20.71;62.25;101416.78;7396979;19;1426;-49
2023/11/23 12:33:12;;;;;;;;;;;;;;;20.44;63.15;101425.28;7394225;19;1561;-49
2023/11/23 12:35:41;;;;;;;;;;;;;;;20.14;63.64;101402.69;7396989;19;1487;-49
2023/11/23 12:38:09;;;;;;;;;;;;;;;20.02;63.92;101419.81;7396549;19;1591;-49
2023/11/23 12:40:37;;;;;;;;;;;;;;;20.47;62.37;101398.16;7395494;19;1844;-49
2023/11/23 12:43:06;;;;;;;;;;;;;;;20.73;61.92;101408.53;7381923;19;1485;-49
2023/11/23 12:45:36;;;;;;;;;;;;;;;20.51;62.80;101398.75;7393327;19;1825;-49
2023/11/23 12:48:05;;;;;;;;;;;;;;;20.20;63.02;101380.69;7395511;19;1787;-49
2023/11/23 12:50:36;;;;;;;;;;;;;;;20.02;63.89;101392.97;7395967;19;1545;-49
2023/11/23 12:53:05;;;;;;;;;;;;;;;20.08;63.80;101387.09;7396043;19;1568;-49
2023/11/23 12:55:34;;;;;;;;;;;;;;;20.36;63.25;101374.91;7395969;19;1557;-49
2023/11/23 12:58:03;;;;;;;;;;;;;;;20.50;62.74;101380.94;7395255;19;1544;-49